Time,TemperatureF,DewpointF,PressureIn,WindDirection,WindDirectionDegrees,WindSpeedMPH,WindSpeedGustMPH,Humidity,HourlyPrecipIn,Conditions,Clouds,dailyrainin,SolarRadiationWatts/m^2,SoftwareType,DateUTC
2013-07-14 00:01:00,65.0,53.0,-100.00,ENE,76,5.0,9.0,66,0.00,,,0.11,0.000000,,2013-07-14 06:01:00,
2013-07-14 00:11:00,65.0,53.0,-100.00,ENE,76,5.0,9.0,66,0.00,,,0.11,0.000000,,2013-07-14 06:11:00,
2013-07-14 00:22:00,65.0,53.0,-100.00,ENE,76,5.0,9.0,66,0.00,,,0.11,0.000000,,2013-07-14 06:22:00,
2013-07-14 00:32:00,65.0,53.0,-100.00,ENE,76,5.0,9.0,66,0.00,,,0.11,0.000000,,2013-07-14 06:32:00,
2013-07-14 00:53:00,63.0,53.0,-100.00,ESE,115,4.0,6.0,69,0.00,,,0.11,0.000000,,2013-07-14 06:53:00,
2013-07-14 01:02:00,63.0,53.0,-100.00,ESE,115,4.0,6.0,69,0.00,,,0.11,0.000000,,2013-07-14 07:02:00,
2013-07-14 01:12:00,63.0,53.0,-100.00,ESE,115,4.0,6.0,69,0.00,,,0.11,0.000000,,2013-07-14 07:12:00,
2013-07-14 01:22:00,63.0,53.0,-100.00,ESE,115,4.0,6.0,69,0.00,,,0.11,0.000000,,2013-07-14 07:22:00,
2013-07-14 01:33:00,63.0,53.0,-100.00,ESE,115,4.0,6.0,69,0.00,,,0.11,0.000000,,2013-07-14 07:33:00,
2013-07-14 02:01:00,60.0,53.0,-100.00,ESE,102,2.0,4.0,78,0.00,,,0.11,0.000000,,2013-07-14 08:01:00,
2013-07-14 02:11:00,60.0,53.0,-100.00,ESE,102,2.0,4.0,78,0.00,,,0.11,0.000000,,2013-07-14 08:11:00,
2013-07-14 02:22:00,60.0,53.0,-100.00,ESE,102,2.0,4.0,78,0.00,,,0.11,0.000000,,2013-07-14 08:22:00,
2013-07-14 02:32:00,60.0,53.0,-100.00,ESE,102,2.0,4.0,78,0.00,,,0.11,0.000000,,2013-07-14 08:32:00,
2013-07-14 02:53:00,60.0,54.0,-100.00,SSE,165,3.0,6.0,82,0.00,,,0.11,0.000000,,2013-07-14 08:53:00,
2013-07-14 03:01:00,60.0,54.0,-100.00,SSE,165,3.0,6.0,82,0.00,,,0.11,0.000000,,2013-07-14 09:01:00,
2013-07-14 03:11:00,60.0,54.0,-100.00,SSE,165,3.0,6.0,82,0.00,,,0.11,0.000000,,2013-07-14 09:11:00,
2013-07-14 03:22:00,60.0,54.0,-100.00,SSE,165,3.0,6.0,82,0.00,,,0.11,0.000000,,2013-07-14 09:22:00,
2013-07-14 03:32:00,60.0,54.0,-100.00,SSE,165,3.0,6.0,82,0.00,,,0.11,0.000000,,2013-07-14 09:32:00,
2013-07-14 03:53:00,58.0,54.0,-100.00,ENE,75,3.0,5.0,85,0.00,,,0.11,0.000000,,2013-07-14 09:53:00,
2013-07-14 04:01:00,58.0,54.0,-100.00,ENE,75,3.0,5.0,85,0.00,,,0.11,0.000000,,2013-07-14 10:01:00,
2013-07-14 04:11:00,58.0,54.0,-100.00,ENE,75,3.0,5.0,85,0.00,,,0.11,0.000000,,2013-07-14 10:11:00,
2013-07-14 04:22:00,58.0,54.0,-100.00,ENE,75,3.0,5.0,85,0.00,,,0.11,0.000000,,2013-07-14 10:22:00,
2013-07-14 04:32:00,58.0,54.0,-100.00,ENE,75,3.0,5.0,85,0.00,,,0.11,0.000000,,2013-07-14 10:32:00,
2013-07-14 04:53:00,57.0,52.0,-100.00,ENE,62,3.0,6.0,83,0.00,,,0.11,0.000000,,2013-07-14 10:53:00,
2013-07-14 05:02:00,57.0,52.0,-100.00,ENE,62,3.0,6.0,83,0.00,,,0.11,0.000000,,2013-07-14 11:02:00,
2013-07-14 05:11:00,57.0,52.0,-100.00,ENE,62,3.0,6.0,83,0.00,,,0.11,0.000000,,2013-07-14 11:11:00,
2013-07-14 05:22:00,57.0,52.0,-100.00,ENE,62,3.0,6.0,83,0.00,,,0.11,0.000000,,2013-07-14 11:22:00,
2013-07-14 05:32:00,57.0,52.0,-100.00,ENE,62,3.0,6.0,83,0.00,,,0.11,0.000000,,2013-07-14 11:32:00,
2013-07-14 05:53:00,55.0,50.0,-100.00,East,83,4.0,5.0,84,0.00,,,0.11,0.000000,,2013-07-14 11:53:00,
2013-07-14 06:02:00,55.0,50.0,-100.00,East,83,4.0,5.0,84,0.00,,,0.11,0.000000,,2013-07-14 12:02:00,
2013-07-14 06:11:00,55.0,50.0,-100.00,East,83,4.0,5.0,84,0.00,,,0.11,0.000000,,2013-07-14 12:11:00,
2013-07-14 06:22:00,55.0,50.0,-100.00,East,83,4.0,5.0,84,0.00,,,0.11,0.000000,,2013-07-14 12:22:00,
2013-07-14 06:33:00,55.0,50.0,-100.00,East,83,4.0,5.0,84,0.00,,,0.11,0.000000,,2013-07-14 12:33:00,
2013-07-14 06:53:00,55.0,52.0,-100.00,ENE,78,2.0,5.0,88,0.00,,,-99.99,8.000000,,2013-07-14 12:53:00,
2013-07-14 07:01:00,55.0,52.0,-100.00,ENE,78,2.0,5.0,88,0.00,,,-99.99,8.000000,,2013-07-14 13:01:00,
2013-07-14 07:11:00,55.0,52.0,-100.00,ENE,78,2.0,5.0,88,0.00,,,-99.99,8.000000,,2013-07-14 13:11:00,
2013-07-14 07:22:00,55.0,52.0,-100.00,ENE,78,2.0,5.0,88,0.00,,,-99.99,8.000000,,2013-07-14 13:22:00,
2013-07-14 07:32:00,55.0,52.0,-100.00,ENE,78,2.0,5.0,88,0.00,,,-99.99,8.000000,,2013-07-14 13:32:00,
2013-07-14 07:53:00,59.0,53.0,-100.00,SW,222,1.0,5.0,81,0.00,,,0.11,58.000000,,2013-07-14 13:53:00,
2013-07-14 08:02:00,59.0,53.0,-100.00,SW,222,1.0,5.0,81,0.00,,,0.11,58.000000,,2013-07-14 14:02:00,
2013-07-14 08:11:00,59.0,53.0,-100.00,SW,222,1.0,5.0,81,0.00,,,0.11,58.000000,,2013-07-14 14:11:00,
2013-07-14 08:23:00,59.0,53.0,-100.00,SW,222,1.0,5.0,81,0.00,,,0.11,58.000000,,2013-07-14 14:23:00,
2013-07-14 08:33:00,59.0,53.0,-100.00,SW,222,1.0,5.0,81,0.00,,,0.11,58.000000,,2013-07-14 14:33:00,
2013-07-14 08:53:00,67.0,57.0,-100.00,West,267,2.0,4.0,70,0.00,,,0.11,252.000000,,2013-07-14 14:53:00,
2013-07-14 09:01:00,67.0,57.0,-100.00,West,267,2.0,4.0,70,0.00,,,0.11,252.000000,,2013-07-14 15:01:00,
2013-07-14 09:12:00,67.0,57.0,-100.00,West,267,2.0,4.0,70,0.00,,,0.11,252.000000,,2013-07-14 15:12:00,
2013-07-14 09:22:00,67.0,57.0,-100.00,West,267,2.0,4.0,70,0.00,,,0.11,252.000000,,2013-07-14 15:22:00,
2013-07-14 09:32:00,67.0,57.0,-100.00,West,267,2.0,4.0,70,0.00,,,0.11,252.000000,,2013-07-14 15:32:00,
2013-07-14 09:53:00,72.0,56.0,-100.00,WNW,283,2.0,5.0,57,0.00,,,0.11,451.000000,,2013-07-14 15:53:00,
2013-07-14 10:01:00,72.0,56.0,-100.00,WNW,283,2.0,5.0,57,0.00,,,0.11,451.000000,,2013-07-14 16:01:00,
2013-07-14 10:11:00,72.0,56.0,-100.00,WNW,283,2.0,5.0,57,0.00,,,0.11,451.000000,,2013-07-14 16:11:00,
2013-07-14 10:22:00,72.0,56.0,-100.00,WNW,283,2.0,5.0,57,0.00,,,0.11,451.000000,,2013-07-14 16:22:00,
2013-07-14 10:32:00,72.0,56.0,-100.00,WNW,283,2.0,5.0,57,0.00,,,0.11,451.000000,,2013-07-14 16:32:00,
2013-07-14 10:53:00,76.0,57.0,-100.00,WSW,247,3.0,5.0,51,0.00,,,0.11,462.000000,,2013-07-14 16:53:00,
2013-07-14 11:02:00,76.0,57.0,-100.00,WSW,247,3.0,5.0,51,0.00,,,0.11,462.000000,,2013-07-14 17:02:00,
2013-07-14 11:11:00,76.0,57.0,-100.00,WSW,247,3.0,5.0,51,0.00,,,0.11,462.000000,,2013-07-14 17:11:00,
2013-07-14 11:22:00,76.0,57.0,-100.00,WSW,247,3.0,5.0,51,0.00,,,0.11,462.000000,,2013-07-14 17:22:00,
2013-07-14 11:32:00,76.0,57.0,-100.00,WSW,247,3.0,5.0,51,0.00,,,0.11,462.000000,,2013-07-14 17:32:00,
2013-07-14 11:53:00,78.0,55.0,-100.00,SSW,199,7.0,14.0,45,0.00,,,0.11,903.000000,,2013-07-14 17:53:00,
2013-07-14 12:01:00,78.0,55.0,-100.00,SSW,199,7.0,14.0,45,0.00,,,0.11,903.000000,,2013-07-14 18:01:00,
2013-07-14 12:11:00,78.0,55.0,-100.00,SSW,199,7.0,14.0,45,0.00,,,0.11,903.000000,,2013-07-14 18:11:00,
2013-07-14 12:22:00,78.0,55.0,-100.00,SSW,199,7.0,14.0,45,0.00,,,0.11,903.000000,,2013-07-14 18:22:00,
2013-07-14 12:32:00,78.0,55.0,-100.00,SSW,199,7.0,14.0,45,0.00,,,0.11,903.000000,,2013-07-14 18:32:00,
2013-07-14 12:52:00,81.0,52.0,-100.00,South,173,4.0,11.0,36,0.00,,,0.11,810.000000,,2013-07-14 18:52:00,
2013-07-14 13:01:00,81.0,52.0,-100.00,South,173,4.0,11.0,36,0.00,,,0.11,810.000000,,2013-07-14 19:01:00,
2013-07-14 13:11:00,81.0,52.0,-100.00,South,173,4.0,11.0,36,0.00,,,0.11,810.000000,,2013-07-14 19:11:00,
2013-07-14 13:22:00,81.0,52.0,-100.00,South,173,4.0,11.0,36,0.00,,,0.11,810.000000,,2013-07-14 19:22:00,
2013-07-14 13:32:00,81.0,52.0,-100.00,South,173,4.0,11.0,36,0.00,,,0.11,810.000000,,2013-07-14 19:32:00,
2013-07-14 13:53:00,83.0,49.0,-100.00,SSW,209,5.0,10.0,31,0.00,,,0.11,658.000000,,2013-07-14 19:53:00,
2013-07-14 14:01:00,83.0,49.0,-100.00,SSW,209,5.0,10.0,31,0.00,,,0.11,658.000000,,2013-07-14 20:01:00,
2013-07-14 14:11:00,83.0,49.0,-100.00,SSW,209,5.0,10.0,31,0.00,,,0.11,658.000000,,2013-07-14 20:11:00,
2013-07-14 14:22:00,83.0,49.0,-100.00,SSW,209,5.0,10.0,31,0.00,,,0.11,658.000000,,2013-07-14 20:22:00,
2013-07-14 14:32:00,83.0,49.0,-100.00,SSW,209,5.0,10.0,31,0.00,,,0.11,658.000000,,2013-07-14 20:32:00,
2013-07-14 15:01:00,72.0,44.0,-100.00,ENE,72,21.0,31.0,36,0.00,,,0.11,589.000000,,2013-07-14 21:01:00,
2013-07-14 15:11:00,72.0,44.0,-100.00,ENE,72,21.0,31.0,36,0.00,,,0.11,589.000000,,2013-07-14 21:11:00,
2013-07-14 15:22:00,72.0,44.0,-100.00,ENE,72,21.0,31.0,36,0.00,,,0.11,589.000000,,2013-07-14 21:22:00,
2013-07-14 15:32:00,72.0,44.0,-100.00,ENE,72,21.0,31.0,36,0.00,,,0.11,589.000000,,2013-07-14 21:32:00,
2013-07-14 15:52:00,73.0,53.0,-100.00,East,86,16.0,27.0,49,0.00,,,0.11,247.000000,,2013-07-14 21:52:00,
2013-07-14 16:01:00,73.0,53.0,-100.00,East,86,16.0,27.0,49,0.00,,,0.11,247.000000,,2013-07-14 22:01:00,
2013-07-14 16:11:00,73.0,53.0,-100.00,East,86,16.0,27.0,49,0.00,,,0.11,247.000000,,2013-07-14 22:11:00,
2013-07-14 16:22:00,73.0,53.0,-100.00,East,86,16.0,27.0,49,0.00,,,0.11,247.000000,,2013-07-14 22:22:00,
2013-07-14 16:32:00,73.0,53.0,-100.00,East,86,16.0,27.0,49,0.00,,,0.11,247.000000,,2013-07-14 22:32:00,
2013-07-14 16:53:00,71.0,51.0,-100.00,East,80,21.0,33.0,49,0.00,,,0.00,234.000000,,2013-07-14 22:53:00,
2013-07-14 17:01:00,71.0,51.0,-100.00,East,80,21.0,33.0,49,0.00,,,0.00,234.000000,,2013-07-14 23:01:00,
2013-07-14 17:11:00,71.0,51.0,-100.00,East,80,21.0,33.0,49,0.00,,,0.00,234.000000,,2013-07-14 23:11:00,
2013-07-14 17:22:00,71.0,51.0,-100.00,East,80,21.0,33.0,49,0.00,,,0.00,234.000000,,2013-07-14 23:22:00,
2013-07-14 17:32:00,71.0,51.0,-100.00,East,80,21.0,33.0,49,0.00,,,0.00,234.000000,,2013-07-14 23:32:00,
2013-07-14 17:53:00,72.0,52.0,-100.00,ESE,102,18.0,33.0,49,0.00,,,0.00,226.000000,,2013-07-14 23:53:00,
2013-07-14 18:02:00,72.0,52.0,-100.00,ESE,102,18.0,33.0,49,0.00,,,0.00,226.000000,,2013-07-15 00:02:00,
2013-07-14 18:11:00,72.0,52.0,-100.00,ESE,102,18.0,33.0,49,0.00,,,0.00,226.000000,,2013-07-15 00:11:00,
2013-07-14 18:22:00,72.0,52.0,-100.00,ESE,102,18.0,33.0,49,0.00,,,0.00,226.000000,,2013-07-15 00:22:00,
2013-07-14 18:32:00,72.0,52.0,-100.00,ESE,102,18.0,33.0,49,0.00,,,0.00,226.000000,,2013-07-15 00:32:00,
2013-07-14 19:01:00,71.0,49.0,-100.00,East,91,17.0,31.0,46,0.00,,,0.00,115.000000,,2013-07-15 01:01:00,
2013-07-14 19:11:00,71.0,49.0,-100.00,East,91,17.0,31.0,46,0.00,,,0.00,115.000000,,2013-07-15 01:11:00,
2013-07-14 19:22:00,71.0,49.0,-100.00,East,91,17.0,31.0,46,0.00,,,0.00,115.000000,,2013-07-15 01:22:00,
2013-07-14 19:32:00,71.0,49.0,-100.00,East,91,17.0,31.0,46,0.00,,,0.00,115.000000,,2013-07-15 01:32:00,
2013-07-14 19:53:00,64.0,54.0,-100.00,NE,49,9.0,26.0,70,0.00,,,0.00,9.000000,,2013-07-15 01:53:00,
2013-07-14 20:02:00,64.0,54.0,-100.00,NE,49,9.0,26.0,70,0.00,,,0.00,9.000000,,2013-07-15 02:02:00,
2013-07-14 20:11:00,64.0,54.0,-100.00,NE,49,9.0,26.0,70,0.00,,,0.00,9.000000,,2013-07-15 02:11:00,
2013-07-14 20:22:00,64.0,54.0,-100.00,NE,49,9.0,26.0,70,0.00,,,0.00,9.000000,,2013-07-15 02:22:00,
2013-07-14 20:32:00,64.0,54.0,-100.00,NE,49,9.0,26.0,70,0.00,,,0.00,9.000000,,2013-07-15 02:32:00,
2013-07-14 20:53:00,61.0,57.0,-100.00,ENE,67,5.0,11.0,88,0.03,,,0.03,4.000000,,2013-07-15 02:53:00,
2013-07-14 21:02:00,61.0,57.0,-100.00,ENE,67,5.0,11.0,88,0.03,,,0.03,4.000000,,2013-07-15 03:02:00,
2013-07-14 21:11:00,61.0,57.0,-100.00,ENE,67,5.0,11.0,88,0.03,,,0.03,4.000000,,2013-07-15 03:11:00,
2013-07-14 21:22:00,61.0,57.0,-100.00,ENE,67,5.0,11.0,88,0.03,,,0.03,4.000000,,2013-07-15 03:22:00,
2013-07-14 21:32:00,61.0,57.0,-100.00,ENE,67,5.0,11.0,88,0.03,,,0.03,4.000000,,2013-07-15 03:32:00,
2013-07-14 22:01:00,61.0,56.0,-100.00,NNW,348,7.0,10.0,84,0.00,,,0.03,0.000000,,2013-07-15 04:01:00,
2013-07-14 22:11:00,61.0,56.0,-100.00,NNW,348,7.0,10.0,84,0.00,,,0.03,0.000000,,2013-07-15 04:11:00,
2013-07-14 22:22:00,61.0,56.0,-100.00,NNW,348,7.0,10.0,84,0.00,,,0.03,0.000000,,2013-07-15 04:22:00,
2013-07-14 22:32:00,61.0,56.0,-100.00,NNW,348,7.0,10.0,84,0.00,,,0.03,0.000000,,2013-07-15 04:32:00,
2013-07-14 22:54:00,61.0,56.0,-100.00,NW,304,3.0,7.0,84,0.00,,,0.03,0.000000,,2013-07-15 04:54:00,
2013-07-14 23:02:00,61.0,56.0,-100.00,NW,304,3.0,7.0,84,0.00,,,0.03,0.000000,,2013-07-15 05:02:00,
2013-07-14 23:11:00,61.0,56.0,-100.00,NW,304,3.0,7.0,84,0.00,,,0.03,0.000000,,2013-07-15 05:11:00,
2013-07-14 23:21:00,61.0,56.0,-100.00,NW,304,3.0,7.0,84,0.00,,,0.03,0.000000,,2013-07-15 05:21:00,
2013-07-14 23:32:00,61.0,56.0,-100.00,NW,304,3.0,7.0,84,0.00,,,0.03,0.000000,,2013-07-15 05:32:00,
2013-07-14 23:53:00,60.0,57.0,-100.00,SSE,168,4.0,8.0,89,0.06,,,0.09,0.000000,,2013-07-15 05:53:00,